Allardt, Tennessee
Current Conditions -  °F | °C
As of 5:53 PM on Wednesday 26 Nov 2014 (Local Time) from KCSV Reporting Station
Overcast Overcast  
Wind Chill: 42°   Ceiling: 9000
Heat Index: 42°   Visibility: 10mi
Dew Point: 23°   Wind: 3mph
Humidity: 47%   Direction: 120°ESE
Pressure: 29.99"   Gusts: NA
Location:  36.38°N, 84.88°W
Report Text: KCSV 262353Z AUTO 12003KT 10SM FEW070 OVC090 06/M05 A2999 RMK AO2 SLP162 T00561050 10083 20050 58012
Loading
Personal Weather Stations






























Interactive Weather Map New forecast layout! Learn more

10-Day Weather Forecast

Advertisements
Track Severe Weather on mobile